sensor_id;sensor_type;location;lat;lon;timestamp;pressure;altitude;pressure_sealevel;temperature;humidity
42761;BME280;31672;47.638;19.026;2023-09-30T00:02:21;100644.34;;;12.86;85.90
42761;BME280;31672;47.638;19.026;2023-09-30T00:07:25;100635.03;;;12.82;86.21
42761;BME280;31672;47.638;19.026;2023-09-30T00:12:29;100644.22;;;12.80;86.81
42761;BME280;31672;47.638;19.026;2023-09-30T00:17:33;100635.88;;;12.75;86.92
42761;BME280;31672;47.638;19.026;2023-09-30T00:22:37;100639.56;;;12.74;87.03
42761;BME280;31672;47.638;19.026;2023-09-30T00:27:41;100636.06;;;12.65;87.88
42761;BME280;31672;47.638;19.026;2023-09-30T00:32:44;100629.63;;;12.59;88.62
42761;BME280;31672;47.638;19.026;2023-09-30T00:37:49;100627.94;;;12.58;89.42
42761;BME280;31672;47.638;19.026;2023-09-30T00:42:53;100620.47;;;12.54;89.55
42761;BME280;31672;47.638;19.026;2023-09-30T00:47:56;100626.94;;;12.51;90.23
42761;BME280;31672;47.638;19.026;2023-09-30T00:53:00;100619.31;;;12.48;90.51
42761;BME280;31672;47.638;19.026;2023-09-30T00:58:04;100616.97;;;12.45;90.79
42761;BME280;31672;47.638;19.026;2023-09-30T01:03:08;100616.97;;;12.45;91.10
42761;BME280;31672;47.638;19.026;2023-09-30T01:08:13;100608.31;;;12.43;90.80
42761;BME280;31672;47.638;19.026;2023-09-30T01:13:17;100609.97;;;12.44;91.23
42761;BME280;31672;47.638;19.026;2023-09-30T01:18:20;100613.66;;;12.43;91.22
42761;BME280;31672;47.638;19.026;2023-09-30T01:23:24;100619.16;;;12.42;91.20
42761;BME280;31672;47.638;19.026;2023-09-30T01:28:28;100617.81;;;12.38;91.15
42761;BME280;31672;47.638;19.026;2023-09-30T01:33:33;100623.66;;;12.33;91.05
42761;BME280;31672;47.638;19.026;2023-09-30T01:38:37;100624.00;;;12.30;92.11
42761;BME280;31672;47.638;19.026;2023-09-30T01:43:40;100612.00;;;12.26;92.14
42761;BME280;31672;47.638;19.026;2023-09-30T01:48:44;100608.00;;;12.22;92.04
42761;BME280;31672;47.638;19.026;2023-09-30T01:53:48;100606.69;;;12.18;92.58
42761;BME280;31672;47.638;19.026;2023-09-30T01:58:53;100602.19;;;12.10;92.94
42761;BME280;31672;47.638;19.026;2023-09-30T02:03:57;100609.84;;;12.05;93.27
42761;BME280;31672;47.638;19.026;2023-09-30T02:09:01;100600.53;;;12.01;93.03
42761;BME280;31672;47.638;19.026;2023-09-30T02:14:06;100603.34;;;11.99;93.37
42761;BME280;31672;47.638;19.026;2023-09-30T02:19:10;100597.72;;;11.94;93.29
42761;BME280;31672;47.638;19.026;2023-09-30T02:24:14;100607.53;;;11.94;93.69
42761;BME280;31672;47.638;19.026;2023-09-30T02:29:18;100599.69;;;11.92;93.98
42761;BME280;31672;47.638;19.026;2023-09-30T02:34:23;100601.06;;;11.88;94.00
42761;BME280;31672;47.638;19.026;2023-09-30T02:39:27;100599.53;;;11.86;94.53
42761;BME280;31672;47.638;19.026;2023-09-30T02:44:31;100592.19;;;11.79;94.74
42761;BME280;31672;47.638;19.026;2023-09-30T02:49:35;100604.66;;;11.79;94.82
42761;BME280;31672;47.638;19.026;2023-09-30T02:54:39;100606.16;;;11.73;94.98
42761;BME280;31672;47.638;19.026;2023-09-30T02:59:43;100600.34;;;11.70;95.56
42761;BME280;31672;47.638;19.026;2023-09-30T03:04:47;100599.19;;;11.64;95.68
42761;BME280;31672;47.638;19.026;2023-09-30T03:09:53;100602.50;;;11.58;96.51
42761;BME280;31672;47.638;19.026;2023-09-30T03:14:57;100595.66;;;11.56;96.46
42761;BME280;31672;47.638;19.026;2023-09-30T03:20:01;100602.81;;;11.55;96.53
42761;BME280;31672;47.638;19.026;2023-09-30T03:25:06;100610.13;;;11.53;96.40
42761;BME280;31672;47.638;19.026;2023-09-30T03:30:12;100609.31;;;11.52;96.54
42761;BME280;31672;47.638;19.026;2023-09-30T03:35:16;100619.13;;;11.52;96.67
42761;BME280;31672;47.638;19.026;2023-09-30T03:40:22;100608.78;;;11.49;96.79
42761;BME280;31672;47.638;19.026;2023-09-30T03:45:31;100612.44;;;11.48;96.97
42761;BME280;31672;47.638;19.026;2023-09-30T03:50:37;100612.75;;;11.45;96.85
42761;BME280;31672;47.638;19.026;2023-09-30T03:55:41;100613.09;;;11.42;97.17
42761;BME280;31672;47.638;19.026;2023-09-30T04:00:45;100613.59;;;11.37;97.18
42761;BME280;31672;47.638;19.026;2023-09-30T04:05:49;100616.72;;;11.33;98.29
42761;BME280;31672;47.638;19.026;2023-09-30T04:10:54;100615.91;;;11.32;99.24
42761;BME280;31672;47.638;19.026;2023-09-30T04:15:57;100611.56;;;11.31;99.25
42761;BME280;31672;47.638;19.026;2023-09-30T04:21:01;100604.59;;;11.30;99.72
42761;BME280;31672;47.638;19.026;2023-09-30T04:26:05;100620.38;;;11.32;99.86
42761;BME280;31672;47.638;19.026;2023-09-30T04:31:09;100615.91;;;11.32;99.89
42761;BME280;31672;47.638;19.026;2023-09-30T04:36:13;100625.53;;;11.33;99.81
42761;BME280;31672;47.638;19.026;2023-09-30T04:41:17;100621.91;;;11.34;100.00
42761;BME280;31672;47.638;19.026;2023-09-30T04:46:22;100616.25;;;11.37;100.00
42761;BME280;31672;47.638;19.026;2023-09-30T04:51:27;100620.25;;;11.41;99.94
42761;BME280;31672;47.638;19.026;2023-09-30T04:56:32;100635.06;;;11.44;99.82
42761;BME280;31672;47.638;19.026;2023-09-30T05:01:36;100632.56;;;11.42;100.00
42761;BME280;31672;47.638;19.026;2023-09-30T05:06:39;100642.03;;;11.45;100.00
42761;BME280;31672;47.638;19.026;2023-09-30T05:11:43;100657.22;;;11.52;100.00
42761;BME280;31672;47.638;19.026;2023-09-30T05:16:47;100647.56;;;11.60;100.00
42761;BME280;31672;47.638;19.026;2023-09-30T05:21:51;100638.28;;;11.72;100.00
42761;BME280;31672;47.638;19.026;2023-09-30T05:26:56;100652.63;;;11.87;100.00
42761;BME280;31672;47.638;19.026;2023-09-30T05:31:59;100648.31;;;12.02;100.00
42761;BME280;31672;47.638;19.026;2023-09-30T05:37:03;100647.31;;;12.20;100.00
42761;BME280;31672;47.638;19.026;2023-09-30T05:42:09;100646.78;;;12.41;100.00
42761;BME280;31672;47.638;19.026;2023-09-30T05:47:12;100646.59;;;12.67;100.00
42761;BME280;31672;47.638;19.026;2023-09-30T05:52:16;100638.81;;;12.96;100.00
42761;BME280;31672;47.638;19.026;2023-09-30T05:57:20;100636.41;;;13.26;100.00
42761;BME280;31672;47.638;19.026;2023-09-30T06:02:24;100654.25;;;13.56;100.00
42761;BME280;31672;47.638;19.026;2023-09-30T06:07:28;100648.38;;;13.84;100.00
42761;BME280;31672;47.638;19.026;2023-09-30T06:12:32;100643.50;;;14.10;100.00
42761;BME280;31672;47.638;19.026;2023-09-30T06:17:36;100653.16;;;14.34;100.00
42761;BME280;31672;47.638;19.026;2023-09-30T06:22:39;100654.31;;;14.55;100.00
42761;BME280;31672;47.638;19.026;2023-09-30T06:27:48;100659.59;;;14.78;99.64
42761;BME280;31672;47.638;19.026;2023-09-30T06:32:52;100657.38;;;14.96;98.36
42761;BME280;31672;47.638;19.026;2023-09-30T06:37:57;100658.19;;;15.11;97.72
42761;BME280;31672;47.638;19.026;2023-09-30T06:43:00;100654.88;;;15.24;96.98
42761;BME280;31672;47.638;19.026;2023-09-30T06:48:05;100656.22;;;15.35;95.89
42761;BME280;31672;47.638;19.026;2023-09-30T06:53:08;100666.19;;;15.41;95.12
42761;BME280;31672;47.638;19.026;2023-09-30T06:58:13;100667.47;;;15.45;94.82
42761;BME280;31672;47.638;19.026;2023-09-30T07:03:17;100656.47;;;15.55;94.84
42761;BME280;31672;47.638;19.026;2023-09-30T07:08:28;100661.53;;;15.64;94.80
42761;BME280;31672;47.638;19.026;2023-09-30T07:13:35;100667.06;;;15.77;94.60
42761;BME280;31672;47.638;19.026;2023-09-30T07:18:39;100664.25;;;15.86;94.11
42761;BME280;31672;47.638;19.026;2023-09-30T07:23:43;100665.19;;;15.99;94.40
42761;BME280;31672;47.638;19.026;2023-09-30T07:28:47;100670.88;;;16.11;93.84
42761;BME280;31672;47.638;19.026;2023-09-30T07:33:50;100672.47;;;16.27;93.76
42761;BME280;31672;47.638;19.026;2023-09-30T07:38:54;100671.34;;;16.43;93.13
42761;BME280;31672;47.638;19.026;2023-09-30T07:43:58;100671.28;;;16.64;93.47
42761;BME280;31672;47.638;19.026;2023-09-30T07:49:02;100669.22;;;16.88;93.35
42761;BME280;31672;47.638;19.026;2023-09-30T07:54:06;100670.38;;;17.13;92.58
42761;BME280;31672;47.638;19.026;2023-09-30T07:59:30;100673.19;;;17.39;90.98
42761;BME280;31672;47.638;19.026;2023-09-30T08:04:34;100668.09;;;17.64;89.88
42761;BME280;31672;47.638;19.026;2023-09-30T08:09:39;100673.56;;;17.84;86.97
42761;BME280;31672;47.638;19.026;2023-09-30T08:14:43;100668.41;;;18.03;85.80
42761;BME280;31672;47.638;19.026;2023-09-30T08:19:50;100672.13;;;18.22;84.74
42761;BME280;31672;47.638;19.026;2023-09-30T08:24:55;100668.44;;;18.36;83.84
42761;BME280;31672;47.638;19.026;2023-09-30T08:29:59;100664.91;;;18.55;78.81
42761;BME280;31672;47.638;19.026;2023-09-30T08:35:03;100669.44;;;18.81;77.21
42761;BME280;31672;47.638;19.026;2023-09-30T08:40:08;100657.75;;;19.14;74.19
42761;BME280;31672;47.638;19.026;2023-09-30T08:45:15;100652.41;;;19.52;71.27
42761;BME280;31672;47.638;19.026;2023-09-30T08:50:21;100639.47;;;19.99;68.93
42761;BME280;31672;47.638;19.026;2023-09-30T08:55:26;100640.59;;;20.41;66.54
42761;BME280;31672;47.638;19.026;2023-09-30T09:00:30;100630.16;;;20.70;62.94
42761;BME280;31672;47.638;19.026;2023-09-30T09:05:35;100642.63;;;20.89;62.04
42761;BME280;31672;47.638;19.026;2023-09-30T09:10:57;100633.84;;;20.94;61.03
42761;BME280;31672;47.638;19.026;2023-09-30T09:16:11;100644.03;;;20.92;60.15
42761;BME280;31672;47.638;19.026;2023-09-30T09:21:22;100637.81;;;20.73;59.08
42761;BME280;31672;47.638;19.026;2023-09-30T09:26:28;100624.28;;;20.54;60.29
42761;BME280;31672;47.638;19.026;2023-09-30T09:31:36;100625.22;;;20.42;60.30
42761;BME280;31672;47.638;19.026;2023-09-30T09:36:40;100626.59;;;20.26;61.22
42761;BME280;31672;47.638;19.026;2023-09-30T09:41:54;100627.16;;;20.10;61.85
42761;BME280;31672;47.638;19.026;2023-09-30T09:47:03;100619.94;;;20.03;63.61
42761;BME280;31672;47.638;19.026;2023-09-30T09:52:11;100622.84;;;20.02;63.77
42761;BME280;31672;47.638;19.026;2023-09-30T09:57:18;100610.03;;;19.97;64.03
42761;BME280;31672;47.638;19.026;2023-09-30T10:02:22;100613.69;;;20.03;64.79
42761;BME280;31672;47.638;19.026;2023-09-30T10:07:34;100622.47;;;20.23;65.60
42761;BME280;31672;47.638;19.026;2023-09-30T10:12:39;100622.06;;;20.45;65.36
42761;BME280;31672;47.638;19.026;2023-09-30T10:18:10;100621.84;;;20.71;63.60
42761;BME280;31672;47.638;19.026;2023-09-30T10:28:42;100607.13;;;20.67;62.67
42761;BME280;31672;47.638;19.026;2023-09-30T10:39:12;100613.09;;;20.51;63.76
42761;BME280;31672;47.638;19.026;2023-09-30T10:49:33;100609.75;;;20.05;64.86
42761;BME280;31672;47.638;19.026;2023-09-30T10:54:37;100610.16;;;19.77;66.05
42761;BME280;31672;47.638;19.026;2023-09-30T10:59:40;100614.66;;;19.59;67.52
42761;BME280;31672;47.638;19.026;2023-09-30T11:04:47;100610.09;;;19.52;68.71
42761;BME280;31672;47.638;19.026;2023-09-30T11:09:53;100610.69;;;19.55;68.20
42761;BME280;31672;47.638;19.026;2023-09-30T11:15:02;100611.31;;;19.57;68.10
42761;BME280;31672;47.638;19.026;2023-09-30T11:20:07;100616.09;;;19.55;68.84
42761;BME280;31672;47.638;19.026;2023-09-30T11:25:18;100610.53;;;19.49;69.31
42761;BME280;31672;47.638;19.026;2023-09-30T11:30:22;100614.28;;;19.42;70.03
42761;BME280;31672;47.638;19.026;2023-09-30T11:35:27;100610.41;;;19.38;70.67
42761;BME280;31672;47.638;19.026;2023-09-30T11:40:31;100625.53;;;19.39;71.15
42761;BME280;31672;47.638;19.026;2023-09-30T11:45:37;100619.31;;;19.38;71.71
42761;BME280;31672;47.638;19.026;2023-09-30T11:50:50;100616.78;;;19.43;71.83
42761;BME280;31672;47.638;19.026;2023-09-30T11:55:59;100622.34;;;19.48;72.07
42761;BME280;31672;47.638;19.026;2023-09-30T12:01:03;100611.75;;;19.53;72.06
42761;BME280;31672;47.638;19.026;2023-09-30T12:06:10;100616.09;;;19.55;72.27
42761;BME280;31672;47.638;19.026;2023-09-30T12:11:20;100615.88;;;19.56;72.61
42761;BME280;31672;47.638;19.026;2023-09-30T12:16:24;100614.41;;;19.60;72.67
42761;BME280;31672;47.638;19.026;2023-09-30T12:21:27;100609.00;;;19.67;73.51
42761;BME280;31672;47.638;19.026;2023-09-30T12:26:32;100611.88;;;19.72;74.09
42761;BME280;31672;47.638;19.026;2023-09-30T12:31:36;100608.28;;;19.78;73.65
42761;BME280;31672;47.638;19.026;2023-09-30T12:36:55;100617.19;;;19.85;73.61
42761;BME280;31672;47.638;19.026;2023-09-30T12:42:02;100603.19;;;19.95;74.30
42761;BME280;31672;47.638;19.026;2023-09-30T12:47:12;100598.97;;;20.05;74.35
42761;BME280;31672;47.638;19.026;2023-09-30T12:52:16;100607.81;;;20.13;74.16
42761;BME280;31672;47.638;19.026;2023-09-30T12:57:19;100612.34;;;20.19;74.30
42761;BME280;31672;47.638;19.026;2023-09-30T13:02:23;100604.41;;;20.24;74.11
42761;BME280;31672;47.638;19.026;2023-09-30T13:07:27;100597.66;;;20.33;73.73
42761;BME280;31672;47.638;19.026;2023-09-30T13:12:31;100597.25;;;20.36;74.28
42761;BME280;31672;47.638;19.026;2023-09-30T13:17:36;100596.06;;;20.50;74.30
42761;BME280;31672;47.638;19.026;2023-09-30T13:22:40;100569.09;;;20.69;72.92
42761;BME280;31672;47.638;19.026;2023-09-30T13:27:43;100568.81;;;20.77;72.29
42761;BME280;31672;47.638;19.026;2023-09-30T13:32:47;100572.25;;;20.84;72.01
42761;BME280;31672;47.638;19.026;2023-09-30T13:37:51;100563.97;;;20.97;72.87
42761;BME280;31672;47.638;19.026;2023-09-30T13:42:55;100564.50;;;21.06;72.14
42761;BME280;31672;47.638;19.026;2023-09-30T13:48:00;100552.00;;;21.05;71.09
42761;BME280;31672;47.638;19.026;2023-09-30T13:53:04;100548.06;;;21.07;71.02
42761;BME280;31672;47.638;19.026;2023-09-30T13:58:08;100550.91;;;21.13;71.18
42761;BME280;31672;47.638;19.026;2023-09-30T14:03:12;100556.34;;;21.24;71.26
42761;BME280;31672;47.638;19.026;2023-09-30T14:08:16;100565.56;;;21.35;71.34
42761;BME280;31672;47.638;19.026;2023-09-30T14:13:20;100561.34;;;21.39;70.82
42761;BME280;31672;47.638;19.026;2023-09-30T14:18:24;100547.84;;;21.39;70.73
42761;BME280;31672;47.638;19.026;2023-09-30T14:23:27;100555.81;;;21.34;70.81
42761;BME280;31672;47.638;19.026;2023-09-30T14:28:32;100556.06;;;21.32;71.01
42761;BME280;31672;47.638;19.026;2023-09-30T14:33:36;100538.31;;;21.36;70.91
42761;BME280;31672;47.638;19.026;2023-09-30T14:38:40;100529.06;;;21.44;71.31
42761;BME280;31672;47.638;19.026;2023-09-30T14:43:44;100527.69;;;21.53;70.17
42761;BME280;31672;47.638;19.026;2023-09-30T14:48:48;100516.97;;;21.58;70.26
42761;BME280;31672;47.638;19.026;2023-09-30T14:53:53;100527.22;;;21.68;70.10
42761;BME280;31672;47.638;19.026;2023-09-30T14:58:58;100525.81;;;21.66;69.96
42761;BME280;31672;47.638;19.026;2023-09-30T15:04:04;100522.63;;;21.57;70.49
42761;BME280;31672;47.638;19.026;2023-09-30T15:09:12;100531.31;;;21.47;71.01
42761;BME280;31672;47.638;19.026;2023-09-30T15:14:17;100531.19;;;21.42;71.31
42761;BME280;31672;47.638;19.026;2023-09-30T15:19:21;100528.19;;;21.32;71.96
42761;BME280;31672;47.638;19.026;2023-09-30T15:24:26;100538.25;;;21.25;72.33
42761;BME280;31672;47.638;19.026;2023-09-30T15:29:30;100529.72;;;21.09;72.59
42761;BME280;31672;47.638;19.026;2023-09-30T15:34:36;100528.25;;;20.95;73.13
42761;BME280;31672;47.638;19.026;2023-09-30T15:39:43;100530.75;;;20.78;73.74
42761;BME280;31672;47.638;19.026;2023-09-30T15:44:50;100538.06;;;20.60;74.53
42761;BME280;31672;47.638;19.026;2023-09-30T15:49:59;100532.38;;;20.43;75.82
42761;BME280;31672;47.638;19.026;2023-09-30T15:55:03;100531.41;;;20.37;76.33
42761;BME280;31672;47.638;19.026;2023-09-30T16:00:07;100535.22;;;20.29;76.65
42761;BME280;31672;47.638;19.026;2023-09-30T16:05:12;100542.56;;;20.22;77.23
42761;BME280;31672;47.638;19.026;2023-09-30T16:10:16;100550.13;;;20.14;77.71
42761;BME280;31672;47.638;19.026;2023-09-30T16:15:20;100553.09;;;20.05;78.14
42761;BME280;31672;47.638;19.026;2023-09-30T16:20:23;100566.25;;;19.95;79.05
42761;BME280;31672;47.638;19.026;2023-09-30T16:25:28;100564.28;;;19.84;78.82
42761;BME280;31672;47.638;19.026;2023-09-30T16:30:33;100556.28;;;19.71;79.40
42761;BME280;31672;47.638;19.026;2023-09-30T16:35:37;100560.31;;;19.55;80.44
42761;BME280;31672;47.638;19.026;2023-09-30T16:40:41;100571.16;;;19.42;81.40
42761;BME280;31672;47.638;19.026;2023-09-30T16:45:49;100570.84;;;19.32;82.50
42761;BME280;31672;47.638;19.026;2023-09-30T16:50:53;100576.03;;;19.27;83.08
42761;BME280;31672;47.638;19.026;2023-09-30T16:56:02;100569.66;;;19.21;83.82
42761;BME280;31672;47.638;19.026;2023-09-30T17:01:11;100568.41;;;19.17;84.25
42761;BME280;31672;47.638;19.026;2023-09-30T17:06:16;100579.41;;;19.15;84.52
42761;BME280;31672;47.638;19.026;2023-09-30T17:11:21;100574.25;;;19.14;84.61
42761;BME280;31672;47.638;19.026;2023-09-30T17:16:25;100580.47;;;19.14;84.58
42761;BME280;31672;47.638;19.026;2023-09-30T17:21:28;100588.13;;;19.11;84.83
42761;BME280;31672;47.638;19.026;2023-09-30T17:26:33;100587.09;;;19.12;84.69
42761;BME280;31672;47.638;19.026;2023-09-30T17:31:37;100575.09;;;19.08;84.82
42761;BME280;31672;47.638;19.026;2023-09-30T17:36:41;100576.34;;;19.05;84.26
42761;BME280;31672;47.638;19.026;2023-09-30T17:41:47;100580.31;;;19.03;84.14
42761;BME280;31672;47.638;19.026;2023-09-30T17:46:51;100585.72;;;18.96;84.01
42761;BME280;31672;47.638;19.026;2023-09-30T17:51:55;100590.91;;;18.91;83.61
42761;BME280;31672;47.638;19.026;2023-09-30T17:56:59;100612.03;;;18.87;83.74
42761;BME280;31672;47.638;19.026;2023-09-30T18:02:03;100606.47;;;18.82;83.74
42761;BME280;31672;47.638;19.026;2023-09-30T18:07:08;100600.69;;;18.79;84.06
42761;BME280;31672;47.638;19.026;2023-09-30T18:12:12;100599.22;;;18.76;83.29
42761;BME280;31672;47.638;19.026;2023-09-30T18:17:16;100607.13;;;18.78;82.92
42761;BME280;31672;47.638;19.026;2023-09-30T18:22:20;100609.59;;;18.79;82.68
42761;BME280;31672;47.638;19.026;2023-09-30T18:27:23;100607.28;;;18.83;81.51
42761;BME280;31672;47.638;19.026;2023-09-30T18:32:27;100621.16;;;18.86;80.99
42761;BME280;31672;47.638;19.026;2023-09-30T18:37:31;100613.09;;;18.86;81.46
42761;BME280;31672;47.638;19.026;2023-09-30T18:42:35;100617.44;;;18.81;81.36
42761;BME280;31672;47.638;19.026;2023-09-30T18:47:40;100618.06;;;18.76;81.85
42761;BME280;31672;47.638;19.026;2023-09-30T18:52:43;100619.16;;;18.68;81.84
42761;BME280;31672;47.638;19.026;2023-09-30T18:57:47;100615.00;;;18.59;82.61
42761;BME280;31672;47.638;19.026;2023-09-30T19:02:50;100610.88;;;18.50;82.58
42761;BME280;31672;47.638;19.026;2023-09-30T19:07:55;100608.81;;;18.39;82.94
42761;BME280;31672;47.638;19.026;2023-09-30T19:12:59;100610.47;;;18.33;83.43
42761;BME280;31672;47.638;19.026;2023-09-30T19:18:03;100621.66;;;18.30;83.59
42761;BME280;31672;47.638;19.026;2023-09-30T19:23:06;100627.66;;;18.26;83.97
42761;BME280;31672;47.638;19.026;2023-09-30T19:28:12;100622.91;;;18.21;84.07
42761;BME280;31672;47.638;19.026;2023-09-30T19:33:16;100617.72;;;18.19;83.39
42761;BME280;31672;47.638;19.026;2023-09-30T19:38:19;100621.84;;;18.15;83.38
42761;BME280;31672;47.638;19.026;2023-09-30T19:43:23;100627.66;;;18.12;83.46
42761;BME280;31672;47.638;19.026;2023-09-30T19:48:27;100628.88;;;18.10;83.82
42761;BME280;31672;47.638;19.026;2023-09-30T19:53:31;100634.91;;;18.05;83.42
42761;BME280;31672;47.638;19.026;2023-09-30T19:58:34;100632.00;;;18.00;83.95
42761;BME280;31672;47.638;19.026;2023-09-30T20:03:38;100629.94;;;17.96;83.37
42761;BME280;31672;47.638;19.026;2023-09-30T20:08:46;100637.78;;;17.90;83.39
42761;BME280;31672;47.638;19.026;2023-09-30T20:13:56;100634.25;;;17.83;83.07
42761;BME280;31672;47.638;19.026;2023-09-30T20:19:01;100636.50;;;17.80;83.41
42761;BME280;31672;47.638;19.026;2023-09-30T20:24:05;100636.94;;;17.77;83.13
42761;BME280;31672;47.638;19.026;2023-09-30T20:29:10;100628.22;;;17.75;83.33
42761;BME280;31672;47.638;19.026;2023-09-30T20:34:14;100633.19;;;17.71;83.20
42761;BME280;31672;47.638;19.026;2023-09-30T20:39:17;100630.25;;;17.66;82.50
42761;BME280;31672;47.638;19.026;2023-09-30T20:44:22;100635.41;;;17.61;82.30
42761;BME280;31672;47.638;19.026;2023-09-30T20:49:25;100637.69;;;17.57;82.54
42761;BME280;31672;47.638;19.026;2023-09-30T20:54:29;100639.34;;;17.52;82.10
42761;BME280;31672;47.638;19.026;2023-09-30T20:59:37;100652.13;;;17.50;82.45
42761;BME280;31672;47.638;19.026;2023-09-30T21:04:41;100645.31;;;17.47;82.14
42761;BME280;31672;47.638;19.026;2023-09-30T21:09:44;100643.00;;;17.44;82.48
42761;BME280;31672;47.638;19.026;2023-09-30T21:14:53;100649.19;;;17.38;82.15
42761;BME280;31672;47.638;19.026;2023-09-30T21:19:57;100668.22;;;17.36;81.72
42761;BME280;31672;47.638;19.026;2023-09-30T21:25:01;100660.34;;;17.35;81.64
42761;BME280;31672;47.638;19.026;2023-09-30T21:30:06;100672.31;;;17.32;81.15
42761;BME280;31672;47.638;19.026;2023-09-30T21:35:10;100672.94;;;17.28;80.83
42761;BME280;31672;47.638;19.026;2023-09-30T21:40:13;100675.38;;;17.23;80.54
42761;BME280;31672;47.638;19.026;2023-09-30T21:45:18;100667.72;;;17.20;80.48
42761;BME280;31672;47.638;19.026;2023-09-30T21:50:21;100665.00;;;17.13;80.18
42761;BME280;31672;47.638;19.026;2023-09-30T21:55:25;100683.56;;;17.08;80.20
42761;BME280;31672;47.638;19.026;2023-09-30T22:00:29;100678.97;;;17.02;80.77
42761;BME280;31672;47.638;19.026;2023-09-30T22:05:43;100690.34;;;16.97;80.28
42761;BME280;31672;47.638;19.026;2023-09-30T22:10:55;100680.38;;;16.91;80.00
42761;BME280;31672;47.638;19.026;2023-09-30T22:15:58;100691.06;;;16.84;79.81
42761;BME280;31672;47.638;19.026;2023-09-30T22:21:03;100694.78;;;16.83;79.97
42761;BME280;31672;47.638;19.026;2023-09-30T22:26:08;100688.78;;;16.81;80.21
42761;BME280;31672;47.638;19.026;2023-09-30T22:31:11;100693.53;;;16.79;80.16
42761;BME280;31672;47.638;19.026;2023-09-30T22:36:15;100691.63;;;16.73;80.07
42761;BME280;31672;47.638;19.026;2023-09-30T22:41:20;100694.63;;;16.64;80.26
42761;BME280;31672;47.638;19.026;2023-09-30T22:46:24;100699.88;;;16.50;80.38
42761;BME280;31672;47.638;19.026;2023-09-30T22:51:28;100703.72;;;16.41;80.56
42761;BME280;31672;47.638;19.026;2023-09-30T22:56:32;100701.75;;;16.28;80.94
42761;BME280;31672;47.638;19.026;2023-09-30T23:01:35;100705.63;;;16.19;81.28
42761;BME280;31672;47.638;19.026;2023-09-30T23:06:40;100707.31;;;16.05;81.63
42761;BME280;31672;47.638;19.026;2023-09-30T23:11:44;100703.63;;;15.85;81.93
42761;BME280;31672;47.638;19.026;2023-09-30T23:16:47;100714.34;;;15.70;82.35
42761;BME280;31672;47.638;19.026;2023-09-30T23:21:52;100726.19;;;15.61;82.42
42761;BME280;31672;47.638;19.026;2023-09-30T23:26:56;100724.06;;;15.57;82.15
42761;BME280;31672;47.638;19.026;2023-09-30T23:32:07;100731.47;;;15.55;81.79
42761;BME280;31672;47.638;19.026;2023-09-30T23:37:11;100731.81;;;15.51;81.88
42761;BME280;31672;47.638;19.026;2023-09-30T23:42:15;100744.78;;;15.48;81.49
42761;BME280;31672;47.638;19.026;2023-09-30T23:47:19;100744.50;;;15.43;81.44
42761;BME280;31672;47.638;19.026;2023-09-30T23:52:32;100752.25;;;15.38;80.94
42761;BME280;31672;47.638;19.026;2023-09-30T23:57:36;100752.81;;;15.33;81.15
